Vendor, Arkansas
Current Conditions -  °F | °C
As of 4:53 AM on Thursday 23 Oct 2014 (Local Time) from KHRO Reporting Station
Clear Clear  
Wind Chill:   Ceiling: Unl
Heat Index:   Visibility: 9mi
Dew Point:   Wind: 5mph
Humidity: 96%   Direction: 130°SE
Pressure: 30.17"   Gusts: NA
Location:  35.95°N, 93.08°W
Report Text: KHRO 230953Z AUTO 13004KT 9SM CLR 09/08 A3017 RMK AO2 SLP213 T00890083
Loading
Personal Weather Stations






























Interactive Weather Map
Tropical Storm Tracking
New forecast layout! Learn more

10-Day Weather Forecast

Advertisements
Track Severe Weather on mobile